Time;durP1;ratioP1;P1;durP2;ratioP2;P2;SDS_P1;SDS_P2;PMS_P1;PMS_P2;Temp;Humidity;BMP_temperature;BMP_pressure;BME280_temperature;BME280_humidity;BME280_pressure;Samples;Min_cycle;Max_cycle;Signal;HPM_P1;HPM_P2
2021/12/11 00:01:59;;;;;;;8.80;6.18;;;1.10;99.90;;;;;;4899004;29;20097;-86
2021/12/11 00:04:51;;;;;;;8.85;6.20;;;1.10;99.90;;;;;;4919901;29;20044;-86
2021/12/11 00:07:38;;;;;;;9.48;5.72;;;1.10;99.90;;;;;;4894269;29;20044;-86
2021/12/11 00:10:42;;;;;;;7.22;5.88;;;1.10;99.90;;;;;;4884122;29;20068;-85
2021/12/11 00:13:32;;;;;;;6.43;5.40;;;1.20;99.90;;;;;;4909197;29;20081;-86
2021/12/11 00:16:22;;;;;;;6.88;5.30;;;1.20;99.90;;;;;;4902397;29;20072;-83
2021/12/11 00:19:16;;;;;;;9.55;5.30;;;1.20;99.90;;;;;;4898658;29;20059;-85
2021/12/11 00:22:14;;;;;;;6.70;5.10;;;1.20;99.90;;;;;;4899768;29;20096;-86
2021/12/11 00:25:06;;;;;;;7.70;4.93;;;1.20;99.90;;;;;;4916310;29;20213;-86
2021/12/11 00:28:05;;;;;;;8.77;5.53;;;1.20;99.90;;;;;;4896976;29;20640;-86
2021/12/11 00:30:53;;;;;;;6.18;5.35;;;1.20;99.90;;;;;;4911087;29;20134;-86
2021/12/11 00:33:41;;;;;;;9.70;6.35;;;1.20;99.90;;;;;;4900930;29;20059;-86
2021/12/11 00:36:34;;;;;;;6.95;5.47;;;1.20;99.90;;;;;;4902012;29;20132;-87
2021/12/11 00:39:21;;;;;;;7.55;5.93;;;1.20;99.90;;;;;;4894499;29;20079;-83
2021/12/11 00:42:12;;;;;;;6.80;5.45;;;1.20;99.90;;;;;;4897509;29;20048;-83
2021/12/11 00:45:12;;;;;;;6.90;5.40;;;1.20;99.90;;;;;;4894702;29;20052;-83
2021/12/11 00:48:11;;;;;;;7.60;5.13;;;1.30;99.90;;;;;;4894368;29;20079;-84
2021/12/11 00:51:07;;;;;;;7.82;5.50;;;1.30;99.90;;;;;;4895403;29;20044;-84
2021/12/11 00:54:02;;;;;;;7.45;5.18;;;1.30;99.90;;;;;;4900067;29;20059;-85
2021/12/11 00:56:51;;;;;;;6.88;5.35;;;1.30;99.90;;;;;;4901474;29;20076;-83
2021/12/11 00:59:39;;;;;;;6.25;5.57;;;1.30;99.90;;;;;;4920495;29;20112;-87
2021/12/11 01:02:28;;;;;;;7.53;4.85;;;1.30;99.90;;;;;;4903027;29;20048;-85
2021/12/11 01:05:23;;;;;;;7.53;5.68;;;1.30;99.90;;;;;;4915325;29;20374;-83
2021/12/11 01:08:36;;;;;;;7.70;5.35;;;1.30;99.90;;;;;;4925233;29;20599;-84
2021/12/11 01:11:28;;;;;;;8.35;5.10;;;1.30;99.90;;;;;;4919819;29;20056;-83
2021/12/11 01:14:33;;;;;;;6.03;5.15;;;1.30;99.90;;;;;;4916601;29;20103;-85
2021/12/11 01:17:46;;;;;;;5.97;5.35;;;1.30;99.90;;;;;;4909748;29;20072;-83
2021/12/11 01:20:53;;;;;;;9.57;5.22;;;1.40;99.90;;;;;;4901819;29;20060;-85
2021/12/11 01:23:56;;;;;;;7.78;5.20;;;1.40;99.90;;;;;;4893773;29;20059;-82
2021/12/11 01:26:48;;;;;;;8.82;5.72;;;1.40;99.90;;;;;;4893976;29;20048;-84
2021/12/11 01:29:36;;;;;;;8.70;5.50;;;1.40;99.90;;;;;;4899748;29;20127;-84
2021/12/11 01:32:28;;;;;;;8.18;6.05;;;1.40;99.90;;;;;;4900032;29;20670;-83
2021/12/11 01:35:19;;;;;;;7.38;5.90;;;1.40;99.90;;;;;;4901260;29;20500;-82
2021/12/11 01:38:20;;;;;;;8.45;6.03;;;1.30;99.90;;;;;;4900273;29;20051;-84
2021/12/11 01:41:16;;;;;;;8.07;5.68;;;1.40;99.90;;;;;;4893061;29;20071;-83
2021/12/11 01:44:09;;;;;;;13.27;6.50;;;1.40;99.90;;;;;;4905288;29;20437;-84
2021/12/11 01:47:05;;;;;;;;;;;1.40;99.90;;;;;;4889764;29;20132;-85
2021/12/11 01:49:58;;;;;;;12.30;6.75;;;1.40;99.90;;;;;;4900843;29;19938;-86
2021/12/11 01:53:01;;;;;;;8.00;5.40;;;1.40;99.90;;;;;;4903290;29;20116;-83
2021/12/11 01:55:56;;;;;;;13.43;5.85;;;1.40;99.90;;;;;;4918376;29;20130;-85
2021/12/11 01:58:58;;;;;;;9.38;6.03;;;1.40;99.90;;;;;;4908831;29;20048;-85
2021/12/11 02:01:57;;;;;;;7.72;5.68;;;1.30;99.90;;;;;;4917238;29;20064;-87
2021/12/11 02:04:47;;;;;;;8.70;5.70;;;1.30;99.90;;;;;;4899903;29;20045;-83
2021/12/11 02:07:43;;;;;;;8.57;6.72;;;1.30;99.90;;;;;;4922323;29;20064;-86
2021/12/11 02:10:46;;;;;;;9.70;5.13;;;1.30;99.90;;;;;;4925236;29;20150;-84
2021/12/11 02:13:42;;;;;;;6.80;5.63;;;1.40;99.90;;;;;;4924260;29;20099;-85
2021/12/11 02:16:46;;;;;;;6.57;5.47;;;1.30;99.90;;;;;;4904996;29;20104;-84
2021/12/11 02:19:38;;;;;;;8.35;4.97;;;1.30;99.90;;;;;;4896032;29;20127;-84
2021/12/11 02:22:37;;;;;;;8.82;5.10;;;1.30;99.90;;;;;;4899594;29;20128;-86
2021/12/11 02:25:38;;;;;;;9.23;5.18;;;1.40;99.90;;;;;;4907540;29;20192;-85
2021/12/11 02:28:35;;;;;;;9.85;5.40;;;1.30;99.90;;;;;;4917075;29;20176;-84
2021/12/11 02:31:42;;;;;;;9.02;5.28;;;1.30;99.90;;;;;;4902378;29;20044;-86
2021/12/11 02:34:42;;;;;;;7.13;4.70;;;1.40;99.90;;;;;;4895285;29;20040;-84
2021/12/11 02:37:47;;;;;;;7.22;5.25;;;1.30;99.90;;;;;;4892592;29;20485;-85
2021/12/11 02:40:49;;;;;;;7.10;4.68;;;1.40;99.90;;;;;;4900567;29;20172;-83
2021/12/11 02:43:49;;;;;;;4.50;4.05;;;1.40;99.90;;;;;;4902070;29;20115;-84
2021/12/11 02:46:55;;;;;;;5.85;4.20;;;1.40;99.90;;;;;;4915705;29;20157;-83
2021/12/11 02:50:07;;;;;;;4.88;4.38;;;1.40;99.90;;;;;;4915296;29;20044;-85
2021/12/11 02:53:20;;;;;;;5.90;4.20;;;1.40;99.90;;;;;;4897205;29;20048;-84
2021/12/11 02:56:17;;;;;;;4.68;4.15;;;1.30;99.90;;;;;;4915381;29;20656;-85
2021/12/11 02:59:13;;;;;;;5.53;4.25;;;1.30;99.90;;;;;;4903780;29;20080;-83
2021/12/11 03:02:17;;;;;;;6.80;4.43;;;1.40;99.90;;;;;;4903101;29;20158;-85
2021/12/11 03:05:11;;;;;;;7.35;4.65;;;1.40;99.90;;;;;;4903736;29;20148;-85
2021/12/11 03:08:05;;;;;;;10.60;5.13;;;1.40;99.90;;;;;;4902121;29;20045;-84
2021/12/11 03:10:56;;;;;;;5.90;4.30;;;1.30;99.90;;;;;;4904523;29;20138;-85
2021/12/11 03:13:50;;;;;;;6.43;4.20;;;1.40;99.90;;;;;;4907500;29;20134;-85
2021/12/11 03:16:41;;;;;;;6.68;4.60;;;1.40;99.90;;;;;;4890530;29;20383;-86
2021/12/11 03:19:33;;;;;;;7.68;4.75;;;1.30;99.90;;;;;;4900131;29;20048;-86
2021/12/11 03:22:27;;;;;;;5.35;4.47;;;1.40;99.90;;;;;;4903917;29;20051;-86
2021/12/11 03:25:21;;;;;;;5.35;3.40;;;1.30;99.90;;;;;;4897014;29;20131;-86
2021/12/11 03:28:10;;;;;;;2.85;2.65;;;1.30;99.90;;;;;;4917376;29;20044;-90
2021/12/11 03:31:00;;;;;;;5.03;2.08;;;1.20;99.90;;;;;;4917455;29;20108;-86
2021/12/11 03:33:55;;;;;;;2.20;2.00;;;1.00;99.90;;;;;;4890244;29;20466;-86
2021/12/11 03:36:44;;;;;;;2.13;1.95;;;0.80;99.90;;;;;;4902500;29;20134;-86
2021/12/11 03:39:39;;;;;;;3.13;2.20;;;0.80;99.90;;;;;;4904669;29;20374;-87
2021/12/11 03:42:34;;;;;;;2.25;2.05;;;0.70;99.90;;;;;;4916612;29;20104;-86
2021/12/11 03:45:29;;;;;;;2.85;2.20;;;0.60;99.90;;;;;;4903312;29;20127;-84
2021/12/11 03:48:22;;;;;;;2.50;2.30;;;0.60;99.90;;;;;;4881414;29;20052;-85
2021/12/11 03:51:12;;;;;;;;;;;0.60;99.90;;;;;;4891271;29;20135;-87
2021/12/11 03:54:04;;;;;;;4.85;2.80;;;0.50;99.90;;;;;;4894869;29;20380;-88
2021/12/11 03:56:51;;;;;;;3.42;3.13;;;0.60;99.90;;;;;;4897816;29;20120;-85
2021/12/11 03:59:39;;;;;;;4.18;3.78;;;0.60;99.90;;;;;;4889048;29;20101;-85
2021/12/11 04:02:32;;;;;;;6.38;3.90;;;0.60;99.90;;;;;;4890063;29;20472;-84
2021/12/11 04:05:22;;;;;;;;;;;0.60;99.90;;;;;;4888753;29;20447;-85
2021/12/11 04:08:16;;;;;;;5.85;4.68;;;0.60;99.90;;;;;;4896810;29;20357;-86
2021/12/11 04:11:06;;;;;;;8.13;4.55;;;0.60;99.90;;;;;;4892087;29;20057;-86
2021/12/11 04:13:59;;;;;;;6.63;5.10;;;0.60;99.90;;;;;;4882904;29;20128;-86
2021/12/11 04:16:49;;;;;;;6.43;4.85;;;0.60;99.90;;;;;;4887996;29;20044;-87
2021/12/11 04:19:37;;;;;;;6.47;4.60;;;0.60;99.90;;;;;;4884760;29;20505;-87
2021/12/11 04:22:26;;;;;;;6.00;5.15;;;0.60;99.90;;;;;;4885320;29;20044;-86
2021/12/11 04:25:15;;;;;;;6.18;4.60;;;0.60;99.90;;;;;;4896675;29;20143;-89
2021/12/11 04:28:03;;;;;;;5.90;4.55;;;0.50;99.90;;;;;;4890079;29;20089;-87
2021/12/11 04:31:01;;;;;;;7.25;5.40;;;0.60;99.90;;;;;;4885743;29;20131;-87
2021/12/11 04:33:52;;;;;;;6.75;5.40;;;0.50;99.90;;;;;;4895295;29;20584;-85
2021/12/11 04:36:56;;;;;;;7.13;5.60;;;0.50;99.90;;;;;;4896996;29;20056;-85
2021/12/11 04:39:51;;;;;;;8.82;5.90;;;0.60;99.90;;;;;;4889993;29;20040;-86
2021/12/11 04:42:53;;;;;;;6.97;5.60;;;0.60;99.90;;;;;;4897093;29;20083;-85
2021/12/11 04:45:59;;;;;;;9.32;6.53;;;0.60;99.90;;;;;;4886404;29;20041;-86
2021/12/11 04:49:13;;;;;;;7.32;6.18;;;0.60;99.90;;;;;;4905484;29;20048;-88
2021/12/11 04:52:13;;;;;;;8.63;6.20;;;0.60;99.90;;;;;;4893289;29;20183;-84
2021/12/11 04:55:37;;;;;;;10.35;6.40;;;0.60;99.90;;;;;;4891980;29;20048;-88
2021/12/11 05:05:08;;;;;;;8.60;6.53;;;0.60;99.90;;;;;;4901467;29;20044;-87
2021/12/11 05:08:15;;;;;;;7.72;5.65;;;0.60;99.90;;;;;;4886700;29;20373;-85
2021/12/11 05:11:10;;;;;;;9.70;7.38;;;0.60;99.90;;;;;;4894085;29;20415;-88
2021/12/11 05:14:02;;;;;;;9.43;7.32;;;0.70;99.90;;;;;;4886184;29;20045;-88
2021/12/11 05:16:52;;;;;;;12.35;7.57;;;0.60;99.90;;;;;;4902323;29;20059;-87
2021/12/11 05:19:44;;;;;;;10.90;8.07;;;0.60;99.90;;;;;;4891064;29;20053;-86
2021/12/11 05:22:35;;;;;;;9.40;7.43;;;0.70;99.90;;;;;;4908565;29;20048;-87
2021/12/11 05:25:28;;;;;;;14.90;10.98;;;0.70;99.90;;;;;;4896787;29;20048;-87
2021/12/11 05:28:16;;;;;;;18.67;11.73;;;0.70;99.90;;;;;;4900132;29;20044;-84
2021/12/11 05:31:06;;;;;;;18.90;12.52;;;0.60;99.90;;;;;;4883122;29;20132;-87
2021/12/11 05:33:57;;;;;;;21.52;13.93;;;0.60;99.90;;;;;;4898826;29;20123;-86
2021/12/11 05:36:53;;;;;;;20.25;13.43;;;0.60;99.90;;;;;;4910264;29;20358;-84
2021/12/11 05:39:42;;;;;;;18.02;12.60;;;0.70;99.90;;;;;;4910431;29;20051;-86
2021/12/11 05:42:29;;;;;;;20.52;14.32;;;0.60;99.90;;;;;;4900528;29;20062;-85
2021/12/11 05:45:17;;;;;;;19.92;13.70;;;0.70;99.90;;;;;;4927067;29;20056;-85
2021/12/11 05:48:05;;;;;;;18.38;12.88;;;0.70;99.90;;;;;;4918156;29;20087;-84
2021/12/11 05:51:00;;;;;;;17.65;12.30;;;0.70;99.90;;;;;;4925198;29;20052;-84
2021/12/11 05:53:54;;;;;;;16.58;11.63;;;0.70;99.90;;;;;;4932857;29;20047;-84
2021/12/11 05:56:43;;;;;;;16.17;11.43;;;0.60;99.90;;;;;;4911673;29;20059;-88
2021/12/11 05:59:32;;;;;;;17.73;11.60;;;0.60;99.90;;;;;;4904222;29;20060;-86
2021/12/11 06:02:28;;;;;;;19.77;13.57;;;0.60;99.90;;;;;;4917003;29;20044;-85
2021/12/11 06:05:19;;;;;;;16.90;11.38;;;0.60;99.90;;;;;;4902517;29;20048;-87
2021/12/11 06:08:09;;;;;;;17.23;11.60;;;0.60;99.90;;;;;;4885791;29;20143;-87
2021/12/11 06:10:57;;;;;;;17.15;10.80;;;0.60;99.90;;;;;;4901479;29;20074;-87
2021/12/11 06:13:48;;;;;;;15.13;10.57;;;0.60;99.90;;;;;;4902456;29;20142;-86
2021/12/11 06:16:36;;;;;;;13.90;10.88;;;0.60;99.90;;;;;;4901535;29;20473;-85
2021/12/11 06:19:25;;;;;;;14.55;10.30;;;0.60;99.90;;;;;;4900693;29;20060;-87
2021/12/11 06:22:15;;;;;;;14.38;10.13;;;0.60;99.90;;;;;;4899529;29;20059;-87
2021/12/11 06:25:16;;;;;;;14.73;10.00;;;0.60;99.90;;;;;;4888087;29;20415;-86
2021/12/11 06:28:07;;;;;;;12.68;9.52;;;0.60;99.90;;;;;;4903085;29;20155;-88
2021/12/11 06:30:58;;;;;;;14.65;10.75;;;0.60;99.90;;;;;;4918809;29;20043;-85
2021/12/11 06:33:54;;;;;;;17.15;11.45;;;0.60;99.90;;;;;;4884397;29;20048;-84
2021/12/11 06:36:47;;;;;;;15.63;10.98;;;0.60;99.90;;;;;;4915828;29;20052;-88
2021/12/11 06:39:41;;;;;;;18.60;12.68;;;0.60;99.90;;;;;;4906971;29;20040;-85
2021/12/11 06:42:35;;;;;;;19.15;12.32;;;0.60;99.90;;;;;;4907738;29;20108;-85
2021/12/11 06:45:26;;;;;;;20.23;12.30;;;0.60;99.90;;;;;;4935104;29;20071;-85
2021/12/11 06:48:15;;;;;;;16.45;11.30;;;0.60;99.90;;;;;;4931392;29;20052;-87
2021/12/11 06:51:05;;;;;;;21.42;13.00;;;0.60;99.90;;;;;;4907225;29;20056;-86
2021/12/11 06:53:58;;;;;;;21.17;13.23;;;0.60;99.90;;;;;;4911237;29;20056;-89
2021/12/11 06:56:46;;;;;;;23.30;13.05;;;0.70;99.90;;;;;;4908992;29;20126;-85
2021/12/11 06:59:33;;;;;;;20.70;13.60;;;0.70;99.90;;;;;;4901283;29;20091;-85
2021/12/11 07:02:26;;;;;;;23.58;13.70;;;0.70;99.90;;;;;;4896438;29;20119;-86
2021/12/11 07:05:14;;;;;;;21.65;13.32;;;0.70;99.90;;;;;;4900000;29;20079;-85
2021/12/11 07:08:04;;;;;;;19.70;11.77;;;0.70;99.90;;;;;;4884750;29;20143;-86
2021/12/11 07:10:52;;;;;;;25.98;14.25;;;0.70;99.90;;;;;;4888019;29;20473;-85
2021/12/11 07:13:43;;;;;;;17.77;11.80;;;0.70;99.90;;;;;;4893326;29;20045;-86
2021/12/11 08:30:58;;;;;;;;;;;0.80;99.90;;;;;;5824672;23;20056;-87
2021/12/11 08:34:06;;;;;;;32.30;17.55;;;0.80;99.90;;;;;;4889168;29;19934;-87
2021/12/11 08:37:17;;;;;;;29.80;18.33;;;0.80;99.90;;;;;;4884850;29;20426;-87
2021/12/11 08:40:50;;;;;;;30.98;18.88;;;0.90;99.90;;;;;;4794044;29;20103;-87
2021/12/11 08:44:02;;;;;;;;;;;;;;;;;;;;;
2021/12/11 08:46:59;;;;;;;28.42;17.98;;;1.00;99.90;;;;;;4796807;29;20093;-88
2021/12/11 08:49:49;;;;;;;32.67;19.48;;;1.00;99.90;;;;;;4790539;29;20153;-88
2021/12/11 08:52:39;;;;;;;32.97;19.15;;;1.10;99.90;;;;;;4803000;29;20058;-88
2021/12/11 08:55:38;;;;;;;31.13;19.17;;;1.10;99.90;;;;;;4795346;29;20512;-88
2021/12/11 08:58:29;;;;;;;27.75;18.67;;;1.20;99.90;;;;;;4857757;29;20169;-87
2021/12/11 09:01:42;;;;;;;30.92;20.25;;;1.20;99.90;;;;;;4875676;29;20522;-89
2021/12/11 09:04:36;;;;;;;32.63;19.70;;;1.30;99.90;;;;;;4890728;29;20056;-88
2021/12/11 09:08:22;;;;;;;;;;;;;;;;;;;;;
2021/12/11 09:12:10;;;;;;;34.58;22.42;;;1.40;99.90;;;;;;4883604;29;20053;-88
2021/12/11 09:15:26;;;;;;;46.08;24.00;;;1.50;99.90;;;;;;4883094;29;20069;-87
2021/12/11 09:18:31;;;;;;;37.47;24.40;;;1.60;99.90;;;;;;4876395;29;20059;-86
2021/12/11 09:25:47;;;;;;;;;;;;;;;;;;;;;
2021/12/11 09:29:16;;;;;;;40.10;26.38;;;1.80;99.90;;;;;;4751174;30;20119;-88
2021/12/11 09:32:37;;;;;;;37.05;25.23;;;2.00;99.90;;;;;;4778446;29;20067;-87
2021/12/11 09:36:25;;;;;;;32.63;23.05;;;2.10;99.90;;;;;;4701491;30;20106;-89
2021/12/11 09:43:05;;;;;;;26.77;18.63;;;2.10;99.90;;;;;;4702960;30;20053;-88
2021/12/11 09:47:05;;;;;;;;;;;;;;;;;;;;;
2021/12/11 10:24:50;;;;;;;;;;;;;;;;;;;;;
2021/12/11 10:27:51;;;;;;;27.33;18.80;;;2.10;99.90;;;;;;6222091;23;20222;-90
2021/12/11 10:31:08;;;;;;;24.25;18.20;;;2.20;99.90;;;;;;6220459;23;20072;-89
2021/12/11 10:36:29;;;;;;;28.63;18.15;;;2.40;99.90;;;;;;6272597;22;20030;-90
2021/12/11 10:39:21;;;;;;;27.75;18.10;;;2.50;99.90;;;;;;6274533;22;20011;-89
2021/12/11 10:42:16;;;;;;;22.65;16.25;;;2.50;99.90;;;;;;6278230;22;20019;-89
2021/12/11 10:45:14;;;;;;;23.00;16.33;;;2.50;99.90;;;;;;6279247;22;20023;-90
2021/12/11 10:48:10;;;;;;;20.20;15.30;;;2.50;99.90;;;;;;6257788;22;20085;-90
2021/12/11 10:51:02;;;;;;;20.40;15.40;;;2.50;99.90;;;;;;6279513;22;20058;-86
2021/12/11 10:53:52;;;;;;;17.40;11.83;;;2.40;99.90;;;;;;6276480;22;20020;-89
2021/12/11 10:56:41;;;;;;;19.98;14.25;;;2.30;99.90;;;;;;6275091;22;20243;-87
2021/12/11 10:59:35;;;;;;;18.27;14.25;;;2.30;99.90;;;;;;6275735;22;20024;-87
2021/12/11 11:02:41;;;;;;;23.55;14.38;;;2.30;99.90;;;;;;6273488;22;20052;-89
2021/12/11 11:05:30;;;;;;;17.55;13.13;;;2.20;99.90;;;;;;6234464;22;20039;-87
2021/12/11 11:08:18;;;;;;;21.35;15.00;;;2.20;99.90;;;;;;6273754;22;20012;-86
2021/12/11 11:11:12;;;;;;;20.38;15.50;;;2.20;99.90;;;;;;6254924;22;20020;-86
2021/12/11 11:14:02;;;;;;;20.42;15.60;;;2.30;99.90;;;;;;6235435;22;20034;-88
2021/12/11 11:16:55;;;;;;;20.55;16.15;;;2.20;99.90;;;;;;6224573;23;20143;-87
2021/12/11 11:19:44;;;;;;;22.10;15.60;;;2.20;99.90;;;;;;6224751;23;20031;-89
2021/12/11 11:22:41;;;;;;;19.90;14.38;;;2.20;99.90;;;;;;6225122;23;20103;-89
2021/12/11 11:25:36;;;;;;;21.20;14.63;;;2.10;99.90;;;;;;6226893;23;20042;-90
2021/12/11 11:28:27;;;;;;;21.55;15.57;;;2.10;99.90;;;;;;6229683;23;20024;-89
2021/12/11 11:31:34;;;;;;;25.05;15.57;;;2.20;99.90;;;;;;6229901;23;20427;-89
2021/12/11 11:34:43;;;;;;;22.45;15.52;;;2.20;99.90;;;;;;6248390;22;20366;-91
2021/12/11 11:37:32;;;;;;;21.30;14.82;;;2.30;99.90;;;;;;6250393;23;20735;-89
2021/12/11 11:40:37;;;;;;;19.17;14.27;;;2.40;99.90;;;;;;6250063;23;20077;-90
2021/12/11 11:43:25;;;;;;;22.27;15.43;;;2.50;99.90;;;;;;6251498;23;20034;-87
2021/12/11 11:46:15;;;;;;;29.75;16.92;;;2.50;99.90;;;;;;6260050;23;20036;-88
2021/12/11 11:49:04;;;;;;;19.77;13.95;;;2.60;99.90;;;;;;6261002;23;20311;-88
2021/12/11 11:51:59;;;;;;;19.42;13.05;;;2.50;99.90;;;;;;6269738;22;20024;-86
2021/12/11 11:55:00;;;;;;;23.90;14.65;;;2.50;99.90;;;;;;6270187;22;20012;-87
2021/12/11 11:58:04;;;;;;;19.42;13.48;;;2.40;99.90;;;;;;6269537;22;20063;-88
2021/12/11 12:00:57;;;;;;;15.30;11.10;;;2.40;99.90;;;;;;6272304;22;20024;-88
2021/12/11 12:03:47;;;;;;;17.20;11.98;;;2.40;99.90;;;;;;6271275;22;20086;-88
2021/12/11 12:06:39;;;;;;;16.80;12.23;;;2.30;99.90;;;;;;6268820;22;20011;-88
2021/12/11 12:09:31;;;;;;;19.33;12.75;;;2.30;99.90;;;;;;6265124;23;20020;-87
2021/12/11 12:12:22;;;;;;;20.70;14.23;;;2.40;99.90;;;;;;6261878;22;20575;-92
2021/12/11 12:15:16;;;;;;;18.88;14.13;;;2.50;99.90;;;;;;6259928;23;20028;-88
2021/12/11 12:18:08;;;;;;;18.35;13.32;;;2.50;99.90;;;;;;6249265;23;20020;-88
2021/12/11 12:21:06;;;;;;;17.60;13.35;;;2.60;99.90;;;;;;6248631;22;20046;-89
2021/12/11 12:23:59;;;;;;;18.88;13.95;;;2.80;99.90;;;;;;6250039;22;20096;-90
2021/12/11 12:27:05;;;;;;;12.00;9.75;;;3.90;99.90;;;;;;6249790;23;20023;-90
2021/12/11 12:30:25;;;;;;;11.00;8.65;;;5.20;99.90;;;;;;6260498;23;20126;-90
2021/12/11 12:33:41;;;;;;;10.40;8.05;;;5.40;99.90;;;;;;6267220;22;20058;-90
2021/12/11 12:36:53;;;;;;;11.25;8.55;;;4.90;99.90;;;;;;6248736;22;20008;-91
2021/12/11 12:39:48;;;;;;;11.23;9.85;;;4.60;99.90;;;;;;6269287;22;20024;-90
2021/12/11 12:42:51;;;;;;;10.32;8.30;;;4.40;99.90;;;;;;6268830;22;20016;-89
2021/12/11 12:45:50;;;;;;;12.63;8.82;;;4.20;99.90;;;;;;6269054;23;20022;-90
2021/12/11 12:48:38;;;;;;;11.68;8.10;;;4.20;99.90;;;;;;6267299;22;20024;-90
2021/12/11 12:51:28;;;;;;;13.38;8.85;;;4.00;99.90;;;;;;6255918;23;20051;-89
2021/12/11 12:54:23;;;;;;;11.10;7.68;;;3.90;99.90;;;;;;6248361;23;20020;-90
2021/12/11 12:57:38;;;;;;;10.05;7.80;;;3.70;99.90;;;;;;6245582;23;20123;-91
2021/12/11 13:00:48;;;;;;;;;;;;;;;;;;;;;
2021/12/11 13:04:02;;;;;;;10.32;8.00;;;3.60;99.90;;;;;;6250315;23;20020;-90
2021/12/11 13:07:15;;;;;;;10.10;8.13;;;3.40;99.90;;;;;;6158205;23;20033;-91
2021/12/11 13:10:28;;;;;;;11.45;8.20;;;3.30;99.90;;;;;;6155257;23;20022;-91
2021/12/11 13:13:37;;;;;;;10.52;8.15;;;3.10;99.90;;;;;;6158645;23;20037;-88
2021/12/11 13:16:32;;;;;;;11.48;8.82;;;2.90;99.90;;;;;;6157102;23;20022;-89
2021/12/11 13:19:33;;;;;;;13.18;9.15;;;2.70;99.90;;;;;;6156166;23;20108;-90
2021/12/11 13:22:47;;;;;;;10.98;8.75;;;2.70;99.90;;;;;;6139540;23;20115;-90
2021/12/11 13:25:53;;;;;;;8.68;6.43;;;2.60;99.90;;;;;;6234071;23;20396;-91
2021/12/11 13:29:05;;;;;;;10.68;7.93;;;2.50;99.90;;;;;;6251891;22;20046;-91
2021/12/11 13:32:11;;;;;;;17.55;9.40;;;2.40;99.90;;;;;;6247595;23;20438;-88
2021/12/11 13:35:10;;;;;;;14.80;8.65;;;2.40;99.90;;;;;;6248506;23;20028;-87
2021/12/11 13:37:57;;;;;;;12.45;9.40;;;2.30;99.90;;;;;;6263840;22;20011;-88
2021/12/11 13:40:52;;;;;;;15.98;10.27;;;2.30;99.90;;;;;;6268329;22;20027;-87
2021/12/11 13:43:41;;;;;;;14.52;10.93;;;2.30;99.90;;;;;;6267493;22;20074;-87
2021/12/11 13:46:32;;;;;;;14.27;10.90;;;2.30;99.90;;;;;;6267255;22;20445;-90
2021/12/11 13:49:24;;;;;;;15.65;10.57;;;2.30;99.90;;;;;;6258123;23;20313;-89
2021/12/11 13:52:12;;;;;;;12.13;8.50;;;2.20;99.90;;;;;;6237170;23;20044;-87
2021/12/11 13:55:01;;;;;;;13.95;10.25;;;2.20;99.90;;;;;;6251791;23;20051;-89
2021/12/11 13:57:49;;;;;;;15.30;10.25;;;2.20;99.90;;;;;;6254961;23;20043;-89
2021/12/11 14:01:01;;;;;;;15.35;10.98;;;2.10;99.90;;;;;;6255030;23;20049;-86
2021/12/11 14:03:54;;;;;;;16.02;11.27;;;2.20;99.90;;;;;;6260259;23;20055;-89
2021/12/11 14:07:10;;;;;;;17.92;12.00;;;2.20;99.90;;;;;;6257691;23;20047;-90
2021/12/11 14:10:03;;;;;;;18.02;13.02;;;2.20;99.90;;;;;;6252861;23;20020;-89
2021/12/11 14:12:53;;;;;;;17.98;12.75;;;2.20;99.90;;;;;;6252783;23;20035;-89
2021/12/11 14:15:47;;;;;;;15.77;12.00;;;2.30;99.90;;;;;;6248532;23;20027;-87
2021/12/11 14:18:35;;;;;;;16.48;12.70;;;2.30;99.90;;;;;;6252278;23;20035;-91
2021/12/11 14:21:23;;;;;;;16.08;12.93;;;2.20;99.90;;;;;;6252545;23;20077;-90
2021/12/11 14:24:12;;;;;;;19.55;13.70;;;2.20;99.90;;;;;;6252833;23;20099;-90
2021/12/11 14:27:02;;;;;;;18.05;12.88;;;2.20;99.90;;;;;;6249105;23;20036;-87
2021/12/11 14:30:03;;;;;;;20.63;14.48;;;2.20;99.90;;;;;;6251212;23;20020;-89
2021/12/11 14:32:54;;;;;;;24.05;12.13;;;2.10;99.90;;;;;;6246790;23;20035;-89
2021/12/11 14:35:41;;;;;;;20.83;13.18;;;2.00;99.90;;;;;;6246450;23;20039;-86
2021/12/11 14:38:32;;;;;;;20.42;13.93;;;2.00;99.90;;;;;;6225681;23;20028;-88
2021/12/11 14:41:21;;;;;;;21.88;14.68;;;1.90;99.90;;;;;;6249034;22;20475;-88
2021/12/11 14:44:27;;;;;;;22.17;15.25;;;1.90;99.90;;;;;;6245221;23;20047;-89
2021/12/11 14:47:27;;;;;;;22.35;16.05;;;1.90;99.90;;;;;;6248006;22;20028;-87
2021/12/11 14:50:19;;;;;;;22.85;16.10;;;1.90;99.90;;;;;;6246908;23;20028;-87
2021/12/11 14:53:14;;;;;;;23.50;15.82;;;1.80;99.90;;;;;;6225437;23;20036;-86
2021/12/11 14:56:09;;;;;;;23.95;16.10;;;1.70;99.90;;;;;;6249391;23;20024;-85
2021/12/11 14:59:03;;;;;;;24.13;16.38;;;1.60;99.90;;;;;;6254915;23;20028;-89
2021/12/11 15:01:56;;;;;;;28.63;17.23;;;1.60;99.90;;;;;;6259693;23;20028;-87
2021/12/11 15:04:50;;;;;;;29.20;18.52;;;1.50;99.90;;;;;;6259665;23;20036;-87
2021/12/11 15:07:39;;;;;;;27.70;18.38;;;1.50;99.90;;;;;;6269070;22;20012;-87
2021/12/11 15:10:30;;;;;;;28.30;18.55;;;1.40;99.90;;;;;;6270551;22;20012;-86
2021/12/11 15:13:35;;;;;;;28.27;18.20;;;1.40;99.90;;;;;;6271754;22;20024;-85
2021/12/11 15:16:25;;;;;;;30.70;20.63;;;1.40;99.90;;;;;;6271631;22;20020;-84
2021/12/11 15:19:18;;;;;;;29.48;19.52;;;1.40;99.90;;;;;;6271214;22;20012;-87
2021/12/11 15:22:06;;;;;;;37.33;20.60;;;1.40;99.90;;;;;;6259741;22;20031;-88
2021/12/11 15:24:55;;;;;;;31.85;19.92;;;1.30;99.90;;;;;;6258508;23;20028;-87
2021/12/11 15:27:43;;;;;;;32.90;20.67;;;1.30;99.90;;;;;;6258547;23;20035;-87
2021/12/11 15:30:41;;;;;;;28.63;19.45;;;1.30;99.90;;;;;;6259707;22;20479;-86
2021/12/11 15:33:51;;;;;;;31.98;20.80;;;1.40;99.90;;;;;;6251425;23;20035;-84
2021/12/11 15:36:44;;;;;;;28.00;18.17;;;1.40;99.90;;;;;;6247987;22;20032;-89
2021/12/11 15:39:38;;;;;;;33.63;19.70;;;1.40;99.90;;;;;;6243746;23;20348;-86
2021/12/11 15:42:25;;;;;;;29.17;19.70;;;1.40;99.90;;;;;;6245353;23;20039;-86
2021/12/11 15:45:15;;;;;;;31.52;20.23;;;1.40;99.90;;;;;;6244706;22;20028;-85
2021/12/11 15:48:03;;;;;;;31.67;20.35;;;1.40;99.90;;;;;;6243075;23;20099;-86
2021/12/11 15:50:55;;;;;;;30.75;20.17;;;1.40;99.90;;;;;;6244790;23;20032;-87
2021/12/11 15:53:45;;;;;;;25.63;15.70;;;1.40;99.90;;;;;;6243377;23;20089;-88
2021/12/11 15:56:34;;;;;;;33.72;21.63;;;1.40;99.90;;;;;;6243350;23;20028;-88
2021/12/11 15:59:22;;;;;;;26.02;16.92;;;1.40;99.90;;;;;;6243039;23;20036;-89
2021/12/11 16:02:14;;;;;;;29.48;17.67;;;1.40;99.90;;;;;;6244107;22;20115;-88
2021/12/11 16:05:05;;;;;;;26.92;16.05;;;1.50;99.90;;;;;;6244126;23;20024;-86
2021/12/11 16:07:53;;;;;;;30.70;20.77;;;1.50;99.90;;;;;;6245119;23;20047;-87
2021/12/11 16:10:44;;;;;;;29.13;19.35;;;1.40;99.90;;;;;;6243594;23;20020;-87
2021/12/11 16:13:36;;;;;;;28.60;17.50;;;1.50;99.90;;;;;;6242286;23;20110;-88
2021/12/11 16:16:25;;;;;;;28.10;17.83;;;1.50;99.90;;;;;;6243551;23;20090;-85
2021/12/11 16:19:15;;;;;;;26.25;16.85;;;1.50;99.90;;;;;;6224999;23;20024;-88
2021/12/11 16:22:17;;;;;;;31.02;19.25;;;1.50;99.90;;;;;;6243677;23;21944;-85
2021/12/11 16:25:14;;;;;;;32.45;19.15;;;1.50;99.90;;;;;;6243501;23;20048;-88
2021/12/11 16:28:10;;;;;;;32.33;19.63;;;1.60;99.90;;;;;;6245256;23;20035;-87
2021/12/11 16:31:00;;;;;;;29.05;19.63;;;1.50;99.90;;;;;;6244212;23;20094;-86
2021/12/11 16:33:53;;;;;;;32.92;19.30;;;1.50;99.90;;;;;;6245217;23;20035;-88
2021/12/11 16:36:59;;;;;;;32.33;17.95;;;1.50;99.90;;;;;;6226289;23;20427;-86
2021/12/11 16:39:46;;;;;;;32.25;19.35;;;1.50;99.90;;;;;;6246827;23;20028;-84
2021/12/11 16:42:37;;;;;;;30.60;20.25;;;1.50;99.90;;;;;;6243262;23;20020;-88
2021/12/11 16:45:25;;;;;;;30.55;20.25;;;1.50;99.90;;;;;;6245758;22;20028;-85
2021/12/11 16:48:18;;;;;;;31.98;19.80;;;1.50;99.90;;;;;;6221551;23;20082;-85
2021/12/11 16:51:10;;;;;;;30.88;19.92;;;1.50;99.90;;;;;;6243791;23;20102;-86
2021/12/11 16:53:58;;;;;;;34.37;21.73;;;1.50;99.90;;;;;;6245507;22;20086;-86
2021/12/11 16:56:51;;;;;;;36.22;21.85;;;1.50;99.90;;;;;;6242862;23;20602;-87
2021/12/11 16:59:40;;;;;;;35.13;21.98;;;1.50;99.90;;;;;;6241580;23;20039;-87
2021/12/11 17:02:28;;;;;;;31.08;19.85;;;1.50;99.90;;;;;;6243801;23;20090;-85
2021/12/11 17:05:21;;;;;;;29.02;19.52;;;1.50;99.90;;;;;;6246419;23;20414;-87
2021/12/11 17:08:11;;;;;;;;;;;1.50;99.90;;;;;;6248420;23;20029;-85
2021/12/11 17:10:59;;;;;;;32.40;19.38;;;1.60;99.90;;;;;;6246120;23;19923;-86
2021/12/11 17:13:47;;;;;;;33.38;20.05;;;1.60;99.90;;;;;;6246183;23;20039;-85
2021/12/11 17:16:46;;;;;;;32.15;18.77;;;1.60;99.90;;;;;;6250013;23;20036;-86
2021/12/11 17:19:41;;;;;;;30.60;19.02;;;1.60;99.90;;;;;;6250038;23;20107;-87
2021/12/11 17:22:29;;;;;;;33.67;20.17;;;1.50;99.90;;;;;;6248310;23;20062;-87
2021/12/11 17:25:26;;;;;;;30.48;20.05;;;1.60;99.90;;;;;;6251389;23;20028;-87
2021/12/11 17:28:24;;;;;;;32.50;20.48;;;1.60;99.90;;;;;;6256177;22;20019;-86
2021/12/11 17:31:12;;;;;;;38.33;22.52;;;1.60;99.90;;;;;;6252989;23;20103;-86